Time;durP1;ratioP1;P1;durP2;ratioP2;P2;SDS_P1;SDS_P2;PMS_P1;PMS_P2;Temp;Humidity;BMP_temperature;BMP_pressure;BME280_temperature;BME280_humidity;BME280_pressure;Samples;Min_cycle;Max_cycle;Signal;HPM_P1;HPM_P2
2023/10/04 00:09:25;;;;;;;2.20;0.70;;;;;;;;;;20848947;28;20219;-66
2023/10/04 00:19:28;;;;;;;1.60;0.63;;;;;;;;;;20862342;28;20230;-66
2023/10/04 00:29:30;;;;;;;1.00;0.50;;;;;;;;;;20861711;28;20221;-66
2023/10/04 00:39:34;;;;;;;1.83;0.80;;;;;;;;;;20876275;28;20283;-66
2023/10/04 00:49:37;;;;;;;1.00;0.60;;;;;;;;;;20875801;28;20292;-66
2023/10/04 00:59:42;;;;;;;1.13;0.60;;;;;;;;;;20859346;28;20229;-66
2023/10/04 01:09:44;;;;;;;1.33;0.60;;;;;;;;;;20859017;28;20213;-66
2023/10/04 01:19:46;;;;;;;1.27;0.80;;;;;;;;;;20868634;28;20728;-66
2023/10/04 01:29:48;;;;;;;1.53;0.70;;;;;;;;;;20872476;28;20222;-66
2023/10/04 01:39:54;;;;;;;1.83;0.83;;;;;;;;;;20862197;28;20225;-66
2023/10/04 01:49:56;;;;;;;1.33;0.50;;;;;;;;;;20848067;28;20222;-66
2023/10/04 01:59:57;;;;;;;1.23;0.60;;;;;;;;;;20870598;28;20217;-66
2023/10/04 02:09:59;;;;;;;2.00;0.63;;;;;;;;;;20864977;28;20690;-66
2023/10/04 02:20:09;;;;;;;1.60;0.60;;;;;;;;;;20869086;28;20268;-66
2023/10/04 02:30:18;;;;;;;1.20;0.70;;;15.90;99.90;;;;;;20856207;28;20721;-65
2023/10/04 02:40:22;;;;;;;1.20;0.60;;;;;;;;;;20851502;28;20229;-66
2023/10/04 02:50:27;;;;;;;3.37;0.80;;;;;;;;;;20864517;28;20245;-66
2023/10/04 03:00:30;;;;;;;0.80;0.40;;;;;;;;;;20850932;28;20244;-65
2023/10/04 03:10:33;;;;;;;2.60;1.07;;;;;;;;;;20843206;28;20292;-66
2023/10/04 03:20:37;;;;;;;1.60;0.60;;;;;;;;;;20831587;28;20565;-66
2023/10/04 03:30:39;;;;;;;1.10;0.60;;;;;;;;;;20861794;28;20259;-66
2023/10/04 03:40:43;;;;;;;0.80;0.50;;;;;;;;;;20840299;28;20255;-65
2023/10/04 03:50:52;;;;;;;1.30;0.70;;;;;;;;;;20882455;28;20283;-66
2023/10/04 04:00:55;;;;;;;1.53;0.93;;;;;;;;;;20898959;28;20287;-66
2023/10/04 04:10:57;;;;;;;1.63;0.73;;;;;;;;;;20869245;28;20233;-68
2023/10/04 04:20:59;;;;;;;1.00;0.60;;;;;;;;;;20856502;28;20221;-66
2023/10/04 04:31:05;;;;;;;1.13;0.77;;;;;;;;;;20876694;28;20213;-66
2023/10/04 04:41:12;;;;;;;1.07;0.70;;;;;;;;;;20866294;28;20218;-65
2023/10/04 04:51:17;;;;;;;1.43;0.70;;;;;;;;;;20845250;28;20548;-66
2023/10/04 05:01:24;;;;;;;1.37;0.70;;;;;;;;;;20843536;23;20282;-66
2023/10/04 05:11:26;;;;;;;1.17;0.60;;;;;;;;;;20698309;28;20590;-68
2023/10/04 05:21:28;;;;;;;1.57;0.50;;;;;;;;;;20694516;28;20242;-68
2023/10/04 05:31:30;;;;;;;1.27;0.60;;;;;;;;;;20691889;28;20707;-68
2023/10/04 05:41:31;;;;;;;0.97;0.60;;;;;;;;;;20683707;28;20242;-68
2023/10/04 05:51:33;;;;;;;1.53;0.70;;;;;;;;;;20688362;28;20235;-68
2023/10/04 06:01:36;;;;;;;2.60;0.87;;;;;;;;;;20692358;28;20615;-68
2023/10/04 06:11:39;;;;;;;2.50;0.87;;;;;;;;;;20690476;28;20223;-68
2023/10/04 06:21:44;;;;;;;1.23;0.70;;;;;;;;;;20695820;28;20199;-68
2023/10/04 06:31:46;;;;;;;2.00;0.70;;;;;;;;;;20692321;28;20677;-66
2023/10/04 06:41:48;;;;;;;0.93;0.60;;;;;;;;;;20646963;28;20203;-68
2023/10/04 06:51:50;;;;;;;1.03;0.60;;;;;;;;;;20681407;28;20219;-68
2023/10/04 07:01:54;;;;;;;3.30;0.70;;;;;;;;;;20694141;28;21070;-66
2023/10/04 07:12:04;;;;;;;1.17;0.83;;;;;;;;;;20704271;28;20270;-68
2023/10/04 07:22:05;;;;;;;1.63;0.70;;;;;;;;;;20699543;28;20280;-68
2023/10/04 07:32:07;;;;;;;3.60;0.93;;;;;;;;;;20680595;28;20300;-68
2023/10/04 07:42:10;;;;;;;3.27;1.03;;;;;;;;;;20696712;28;20758;-66
2023/10/04 07:52:13;;;;;;;0.40;0.40;;;;;;;;;;20680598;28;20223;-66
2023/10/04 08:02:15;;;;;;;1.83;0.47;;;;;;;;;;20673267;28;20231;-66
2023/10/04 08:12:19;;;;;;;0.77;0.60;;;;;;;;;;20700143;28;20262;-66
2023/10/04 08:22:23;;;;;;;2.20;0.70;;;;;;;;;;20684185;28;20238;-66
2023/10/04 08:32:27;;;;;;;1.70;0.90;;;;;;;;;;20672438;28;20227;-66
2023/10/04 08:42:29;;;;;;;2.80;0.93;;;;;;;;;;20706446;28;20215;-66
2023/10/04 08:52:35;;;;;;;1.43;0.50;;;;;;;;;;20721169;28;20235;-66
2023/10/04 09:02:37;;;;;;;1.57;0.90;;;;;;;;;;20712809;28;20243;-66
2023/10/04 09:12:39;;;;;;;2.17;0.90;;;;;;;;;;20696245;28;20301;-66
2023/10/04 09:22:41;;;;;;;2.40;0.60;;;;;;;;;;20696527;28;20215;-66
2023/10/04 09:32:43;;;;;;;4.30;1.17;;;;;;;;;;20701723;28;20312;-66
2023/10/04 09:42:53;;;;;;;2.70;0.77;;;17.90;99.90;;;;;;20715777;28;20280;-67
2023/10/04 09:52:55;;;;;;;1.33;0.57;;;;;;;;;;20694943;28;20276;-66
2023/10/04 10:02:59;;;;;;;1.63;0.67;;;18.40;99.90;;;;;;20696558;28;20247;-67
2023/10/04 10:13:01;;;;;;;0.70;0.40;;;;;;;;;;20670609;28;20227;-66
2023/10/04 10:23:05;;;;;;;1.60;0.50;;;;;;;;;;20694046;28;20211;-67
2023/10/04 10:33:07;;;;;;;1.67;0.60;;;;;;;;;;20690195;28;20224;-67
2023/10/04 10:43:10;;;;;;;1.07;0.50;;;;;;;;;;20700201;28;20699;-67
2023/10/04 10:53:12;;;;;;;1.97;0.70;;;;;;;;;;20698152;28;20392;-66
2023/10/04 11:03:18;;;;;;;1.47;0.60;;;;;;;;;;20769597;23;20286;-66
2023/10/04 11:13:23;;;;;;;3.00;0.90;;;;;;;;;;20841594;28;20780;-65
2023/10/04 11:23:25;;;;;;;1.50;0.67;;;;;;;;;;20827907;28;20223;-67
2023/10/04 11:33:27;;;;;;;1.57;0.70;;;;;;;;;;20843828;28;20225;-66
2023/10/04 11:43:28;;;;;;;2.20;0.80;;;;;;;;;;20829985;28;20277;-66
2023/10/04 11:53:31;;;;;;;1.33;0.80;;;;;;;;;;20862607;28;20221;-66
2023/10/04 12:03:38;;;;;;;2.90;0.70;;;18.70;99.90;;;;;;20844662;28;20637;-66
2023/10/04 12:13:42;;;;;;;2.10;1.10;;;;;;;;;;20880371;28;20309;-66
2023/10/04 12:23:43;;;;;;;2.20;1.17;;;;;;;;;;20833359;28;20587;-66
2023/10/04 12:33:46;;;;;;;2.00;1.10;;;;;;;;;;20835495;28;20221;-66
2023/10/04 12:43:48;;;;;;;2.33;1.20;;;;;;;;;;20853259;28;20668;-66
2023/10/04 12:53:51;;;;;;;2.17;0.97;;;;;;;;;;20885874;28;20252;-66
2023/10/04 13:03:53;;;;;;;2.73;0.93;;;;;;;;;;20853307;28;20321;-66
2023/10/04 13:13:55;;;;;;;2.07;0.90;;;;;;;;;;20866543;28;20776;-67
2023/10/04 13:23:57;;;;;;;2.60;1.10;;;;;;;;;;20857534;28;20218;-67
2023/10/04 13:33:59;;;;;;;2.57;1.00;;;;;;;;;;20859051;28;20237;-67
2023/10/04 13:44:01;;;;;;;2.57;1.27;;;;;;;;;;20856451;28;20237;-66
2023/10/04 13:54:03;;;;;;;2.73;1.00;;;;;;;;;;20848445;28;20272;-67
2023/10/04 14:04:05;;;;;;;2.80;1.10;;;;;;;;;;20848654;28;20576;-66
2023/10/04 14:14:09;;;;;;;5.30;1.50;;;;;;;;;;20868456;28;20311;-66
2023/10/04 14:24:11;;;;;;;3.10;1.27;;;;;;;;;;20870771;28;20206;-66
2023/10/04 14:34:13;;;;;;;2.00;1.10;;;;;;;;;;20852853;28;20225;-67
2023/10/04 14:44:15;;;;;;;2.37;0.97;;;;;;;;;;20851479;28;20276;-66
2023/10/04 14:54:18;;;;;;;2.50;1.10;;;;;;;;;;20851167;28;20215;-66
2023/10/04 15:04:20;;;;;;;2.60;1.30;;;;;;;;;;20860391;28;20634;-66
2023/10/04 15:14:25;;;;;;;3.43;0.97;;;;;;;;;;20841356;28;20540;-67
2023/10/04 15:24:27;;;;;;;2.70;1.20;;;;;;;;;;20864949;28;20214;-66
2023/10/04 15:34:29;;;;;;;2.03;0.90;;;;;;;;;;20854909;28;20379;-66
2023/10/04 15:44:31;;;;;;;3.60;1.40;;;;;;;;;;20850734;28;20206;-67
2023/10/04 15:54:32;;;;;;;3.30;1.20;;;;;;;;;;20879368;28;20221;-67
2023/10/04 16:04:35;;;;;;;2.77;1.37;;;;;;;;;;20873685;28;20283;-68
2023/10/04 16:14:37;;;;;;;5.87;1.50;;;;;;;;;;20888282;28;20214;-66
2023/10/04 16:24:39;;;;;;;3.23;1.30;;;;;;;;;;20870277;28;20207;-66
2023/10/04 16:34:41;;;;;;;4.13;1.20;;;;;;;;;;20884034;28;20647;-66
2023/10/04 16:44:43;;;;;;;3.23;1.37;;;;;;;;;;20847682;28;20214;-67
2023/10/04 16:54:48;;;;;;;2.97;1.47;;;;;;;;;;20865370;28;20271;-68
2023/10/04 17:04:50;;;;;;;6.70;1.90;;;;;;;;;;20816490;23;20238;-68
2023/10/04 17:14:52;;;;;;;9.10;1.87;;;;;;;;;;20767376;28;20284;-68
2023/10/04 17:24:55;;;;;;;5.43;1.67;;;;;;;;;;20767716;28;20211;-68
2023/10/04 17:35:00;;;;;;;3.27;1.40;;;;;;;;;;20760481;28;20211;-69
2023/10/04 17:45:01;;;;;;;2.50;1.27;;;;;;;;;;20747046;28;20595;-69
2023/10/04 17:55:04;;;;;;;3.63;1.50;;;;;;;;;;20789457;28;20211;-69
2023/10/04 18:05:07;;;;;;;2.70;1.13;;;;;;;;;;20760569;28;20679;-69
2023/10/04 18:15:09;;;;;;;2.50;1.20;;;;;;;;;;20774578;28;20714;-69
2023/10/04 18:25:12;;;;;;;5.13;1.60;;;;;;;;;;20802400;28;20776;-69
2023/10/04 18:35:14;;;;;;;4.13;1.50;;;;;;;;;;20797045;28;20234;-68
2023/10/04 18:45:16;;;;;;;3.37;1.60;;;;;;;;;;20784907;28;20214;-69
2023/10/04 18:55:19;;;;;;;3.00;1.50;;;;;;;;;;20776366;28;20226;-69
2023/10/04 19:05:21;;;;;;;4.50;1.67;;;;;;;;;;20762129;28;20282;-71
2023/10/04 19:15:24;;;;;;;4.80;1.80;;;;;;;;;;20783735;28;20226;-69
2023/10/04 19:25:26;;;;;;;2.40;1.30;;;;;;;;;;20774695;28;20202;-69
2023/10/04 19:35:30;;;;;;;4.37;1.57;;;;;;;;;;20776125;28;20586;-69
2023/10/04 19:45:32;;;;;;;3.63;1.27;;;;;;;;;;20750527;28;20215;-70
2023/10/04 19:55:36;;;;;;;2.07;1.30;;;;;;;;;;20771277;28;20349;-69
2023/10/04 20:05:39;;;;;;;4.03;1.33;;;;;;;;;;20741898;28;20226;-69
2023/10/04 20:15:41;;;;;;;2.97;1.57;;;;;;;;;;20774532;28;20214;-69
2023/10/04 20:25:46;;;;;;;2.60;1.20;;;;;;;;;;20772454;28;20287;-69
2023/10/04 20:35:47;;;;;;;2.73;1.53;;;;;;;;;;20809450;28;20214;-69
2023/10/04 20:45:49;;;;;;;3.00;1.70;;;;;;;;;;20757650;28;20995;-69
2023/10/04 20:55:51;;;;;;;2.90;1.47;;;;;;;;;;20736746;28;20273;-69
2023/10/04 21:05:53;;;;;;;3.47;1.87;;;;;;;;;;20741482;28;20249;-69
2023/10/04 21:15:55;;;;;;;2.60;1.30;;;;;;;;;;20739434;28;20753;-69
2023/10/04 21:25:56;;;;;;;2.77;1.33;;;;;;;;;;20745310;28;20215;-69
2023/10/04 21:36:09;;;;;;;5.27;1.57;;;;;;;;;;20745471;28;20962;-69
2023/10/04 21:46:11;;;;;;;2.57;1.57;;;15.40;99.90;;;;;;20722449;28;20214;-69
2023/10/04 21:56:13;;;;;;;3.20;1.40;;;;;;;;;;20766115;28;20609;-69
2023/10/04 22:06:17;;;;;;;5.20;2.10;;;;;;;;;;20737219;28;20226;-69
2023/10/04 22:16:20;;;;;;;2.40;1.10;;;;;;;;;;20743493;28;20219;-70
2023/10/04 22:26:22;;;;;;;3.07;1.57;;;;;;;;;;20725588;28;20215;-69
2023/10/04 22:36:23;;;;;;;2.63;1.20;;;;;;;;;;20801358;28;20218;-69
2023/10/04 22:46:25;;;;;;;2.93;1.47;;;;;;;;;;20782218;28;20703;-69
2023/10/04 22:56:29;;;;;;;4.77;1.50;;;;;;;;;;20745427;28;20218;-70
2023/10/04 23:06:31;;;;;;;2.90;1.20;;;;;;;;;;20739568;28;20235;-69
2023/10/04 23:16:36;;;;;;;4.10;1.50;;;;;;;;;;20726216;28;20218;-70
2023/10/04 23:26:39;;;;;;;3.53;1.47;;;;;;;;;;20762908;28;20199;-69
2023/10/04 23:36:46;;;;;;;3.60;1.23;;;;;;;;;;20762169;28;20705;-69
2023/10/04 23:46:49;;;;;;;3.90;1.40;;;;;;;;;;20780865;23;20210;-64
